Latest Coastal Weather Observations for Warruwi

IDD60701

Issued at 11:41 am CST Friday 28 August 2015 (issued every 10 minutes, with the page automatically refreshed every 10 minutes)

About coastal observations | Map of coastal stations | Coastal observations for NT | Marine services | Other Formats
Station Details ID: 014401 Name: WARRUWI AIRPORT Lat: -11.65 Lon: 133.38 Height: 19.2 m
Data from the previous 72 hours. | See also: Recent months at Warruwi
Date/Time
CST
Temp

°C
Wind Pressure Rain
since 9am
mm
Weather Cloud Vis
km
Sea
Height
m
Swell
Dir
 
Speed
knots
Gust
knots
hPa Trend Height
m
Period
s
Dir
28/11:30am 28.7 E 11 16 1016.4 - 0.0 - - - - - - -
28/11:00am 27.9 E 9 13 1016.7 - 0.0 - - - - - - -
28/10:30am 27.6 E 8 12 1017.0 - 0.0 - - - - - - -
28/10:00am 27.1 E 8 11 1017.0 - 0.0 - - - - - - -
28/09:30am 26.4 ESE 8 10 1016.8 - 0.0 - - - - - - -
28/09:00am 25.9 ESE 6 9 1016.6 - 0.0 - - - - - - -
28/08:30am 25.1 SE 6 8 1016.4 - 0.0 - - - - - - -
28/08:00am 24.8 SE 6 9 1016.1 - 0.0 - - - - - - -
28/07:30am 24.5 ESE 6 8 1015.6 - 0.0 - - - - - - -
28/07:00am 23.3 ESE 5 7 1015.4 - 0.0 - - - - - - -
28/06:30am 23.2 ESE 6 10 1015.1 - 0.0 - - - - - - -
28/06:00am 23.3 SE 6 9 1014.9 - 0.0 - - - - - - -
28/05:30am 23.4 SE 7 12 1014.6 - 0.0 - - - - - - -
28/05:00am 23.7 ESE 8 10 1014.5 - 0.0 - - - - - - -
28/04:30am 23.8 ESE 9 13 1014.5 - 0.0 - - - - - - -
28/04:00am 24.0 ESE 9 13 1014.6 - 0.0 - - - - - - -
28/03:30am 24.4 ESE 10 16 1014.5 - 0.0 - - - - - - -
28/03:00am 25.2 ESE 12 18 1014.7 - 0.0 - - - - - - -
28/02:30am 25.4 E 13 17 1014.6 - 0.0 - - - - - - -
28/02:00am 25.3 E 11 16 1014.7 - 0.0 - - - - - - -
28/01:30am 25.3 E 10 15 1015.0 - 0.0 - - - - - - -
28/01:00am 25.2 E 9 14 1015.3 - 0.0 - - - - - - -
28/12:30am 25.1 ENE 7 14 1015.4 - 0.0 - - - - - - -
28/12:00am 25.0 ENE 6 9 1015.5 - 0.0 - - - - - - -
 
Date/Time
CST
Temp

°C
Wind Pressure Rain
since 9am
mm
Weather Cloud Vis
km
Sea
Height
m
Swell
Dir
 
Speed
knots
Gust
knots
hPa Trend Height
m
Period
s
Dir
27/11:30pm 25.0 ENE 5 10 1015.7 - 0.0 - - - - - - -
27/11:00pm 24.9 ENE 5 9 1015.8 - 0.0 - - - - - - -
27/10:30pm 25.0 ENE 5 8 1015.8 - 0.0 - - - - - - -
27/10:00pm 25.0 ENE 4 7 1015.7 - 0.0 - - - - - - -
27/09:30pm 25.1 ENE 5 8 1015.5 - 0.0 - - - - - - -
27/09:00pm 25.0 ENE 4 7 1015.2 - 0.0 - - - - - - -
27/08:30pm 25.0 ENE 5 9 1014.9 - 0.0 - - - - - - -
27/08:00pm 25.1 ENE 5 8 1014.7 - 0.0 - - - - - - -
27/07:30pm 25.2 ENE 5 8 1014.6 - 0.0 - - - - - - -
27/07:00pm 25.3 ENE 4 8 1014.2 - 0.0 - - - - - - -
27/06:30pm 25.5 ENE 6 10 1013.9 - 0.0 - - - - - - -
27/06:00pm 26.1 NE 6 10 1013.7 - 0.0 - - - - - - -
27/05:30pm 26.5 ENE 8 13 1013.5 - 0.0 - - - - - - -
27/05:00pm 27.1 ENE 8 12 1013.2 - 0.0 - - - - - - -
27/04:30pm 27.7 ENE 7 13 1013.2 - 0.0 - - - - - - -
27/04:00pm 28.1 E 9 13 1013.4 - 0.0 - - - - - - -
27/03:30pm 28.1 E 10 15 1013.6 - 0.0 - - - - - - -
27/03:00pm 27.8 E 10 14 1013.7 - 0.0 - - - - - - -
27/02:30pm 27.8 E 9 13 1014.0 - 0.0 - - - - - - -
27/02:00pm 27.9 E 8 11 1014.5 - 0.0 - - - - - - -
27/01:30pm 28.0 E 9 13 1014.8 - 0.0 - - - - - - -
27/01:00pm 27.8 E 8 11 1015.2 - 0.0 - - - - - - -
27/12:30pm 27.9 E 9 13 1015.5 - 0.0 - - - - - - -
27/12:00pm 27.6 E 10 13 1015.8 - 0.0 - - - - - - -
27/11:30am 27.6 E 10 14 1016.1 - 0.0 - - - - - - -
27/11:00am 27.4 E 9 14 1016.6 - 0.0 - - - - - - -
27/10:30am 27.4 E 10 14 1016.9 - 0.0 - - - - - - -
27/10:00am 27.0 E 8 12 1017.0 - 0.0 - - - - - - -
27/09:30am 25.6 ESE 10 12 1016.9 - 0.0 - - - - - - -
27/09:00am 25.5 ESE 10 13 1016.6 - 0.0 - - - - - - -
27/08:30am 25.1 ESE 9 12 1016.2 - 0.0 - - - - - - -
27/08:00am 24.4 ESE 9 13 1015.9 - 0.0 - - - - - - -
27/07:30am 23.9 ESE 8 11 1015.6 - 0.0 - - - - - - -
27/07:00am 23.3 ESE 7 10 1015.2 - 0.0 - - - - - - -
27/06:30am 23.7 ESE 7 10 1014.9 - 0.0 - - - - - - -
27/06:00am 24.0 ESE 6 9 1014.6 - 0.0 - - - - - - -
27/05:30am 24.2 ESE 7 10 1014.3 - 0.0 - - - - - - -
27/05:00am 24.9 ESE 8 11 1013.9 - 0.0 - - - - - - -
27/04:30am 25.3 E 9 15 1013.8 - 0.0 - - - - - - -
27/04:00am 25.1 E 9 14 1013.6 - 0.0 - - - - - - -
27/03:30am 25.1 E 8 13 1013.6 - 0.0 - - - - - - -
27/03:00am 25.1 E 8 13 1013.7 - 0.0 - - - - - - -
27/02:30am 24.8 E 8 12 1014.0 - 0.0 - - - - - - -
27/02:00am 24.8 E 8 10 1014.3 - 0.0 - - - - - - -
27/01:30am 24.8 E 7 10 1014.5 - 0.0 - - - - - - -
27/01:00am 24.8 E 7 13 1014.6 - 0.0 - - - - - - -
27/12:30am 24.6 ENE 4 8 1014.9 - 0.0 - - - - - - -
27/12:00am 24.4 ENE 4 8 1015.0 - 0.0 - - - - - - -
 
Date/Time
CST
Temp

°C
Wind Pressure Rain
since 9am
mm
Weather Cloud Vis
km
Sea
Height
m
Swell
Dir
 
Speed
knots
Gust
knots
hPa Trend Height
m
Period
s
Dir
26/11:30pm 24.3 ENE 4 8 1015.0 - 0.0 - - - - - - -
26/11:00pm 24.0 ENE 3 5 1015.0 - 0.0 - - - - - - -
26/10:30pm 24.0 NE 3 4 1014.8 - 0.0 - - - - - - -
26/10:00pm 24.2 ENE 3 6 1014.7 - 0.0 - - - - - - -
26/09:30pm 23.9 ENE 2 4 1014.7 - 0.0 - - - - - - -
26/09:00pm 24.0 ENE 3 4 1014.6 - 0.0 - - - - - - -
26/08:30pm 24.2 ENE 3 5 1014.5 - 0.0 - - - - - - -
26/08:00pm 24.4 ENE 3 5 1014.3 - 0.0 - - - - - - -
26/07:30pm 24.7 ENE 3 5 1014.0 - 0.0 - - - - - - -
26/07:00pm 25.0 ENE 4 7 1013.7 - 0.0 - - - - - - -
26/06:30pm 25.4 ENE 4 8 1013.7 - 0.0 - - - - - - -
26/06:00pm 26.0 ENE 7 11 1013.5 - 0.0 - - - - - - -
26/05:30pm 26.5 E 8 11 1013.4 - 0.0 - - - - - - -
26/05:00pm 26.8 E 8 12 1013.4 - 0.0 - - - - - - -
26/04:30pm 27.0 E 9 14 1013.5 - 0.0 - - - - - - -
26/04:00pm 27.9 E 9 15 1013.5 - 0.0 - - - - - - -
26/03:30pm 28.3 E 10 14 1013.6 - 0.0 - - - - - - -
26/03:00pm 27.7 E 11 16 1013.9 - 0.0 - - - - - - -
26/02:30pm 28.2 E 11 16 1014.2 - 0.0 - - - - - - -
26/02:00pm 28.0 E 11 16 1014.7 - 0.0 - - - - - - -
26/01:30pm 27.9 E 8 14 1015.1 - 0.0 - - - - - - -
26/01:00pm 28.0 E 9 13 1015.6 - 0.0 - - - - - - -
26/12:30pm 28.1 E 12 16 1016.2 - 0.0 - - - - - - -
26/12:00pm 28.3 E 12 16 1016.5 - 0.0 - - - - - - -
26/11:30am 28.1 E 11 15 1016.8 - 0.0 - - - - - - -
26/11:00am 28.2 E 9 14 1017.1 - 0.0 - - - - - - -
26/10:30am 27.4 E 9 14 1017.4 - 0.0 - - - - - - -
26/10:00am 26.5 ESE 9 13 1017.6 - 0.0 - - - - - - -
26/09:30am 26.3 ESE 10 15 1017.3 - 0.0 - - - - - - -
26/09:00am 26.5 ESE 10 13 1017.0 - 0.0 - - - - - - -
26/08:30am 25.1 ESE 9 12 1016.7 - 0.0 - - - - - - -
26/08:00am 25.1 ESE 9 13 1016.3 - 0.0 - - - - - - -
26/07:30am 24.7 ESE 7 10 1015.9 - 0.0 - - - - - - -
26/07:00am 24.8 E 11 15 1015.5 - 0.0 - - - - - - -
26/06:30am 24.8 E 11 15 1015.3 - 0.0 - - - - - - -
26/06:00am 24.7 ESE 9 13 1014.7 - 0.0 - - - - - - -
26/05:30am 24.9 E 11 14 1014.5 - 0.0 - - - - - - -
26/05:00am 25.0 E 11 15 1014.2 - 0.0 - - - - - - -
26/04:30am 25.0 E 9 15 1014.1 - 0.0 - - - - - - -
26/04:00am 25.0 E 10 17 1013.9 - 0.0 - - - - - - -
26/03:30am 25.1 ENE 8 14 1013.8 - 0.0 - - - - - - -
26/03:00am 25.1 E 9 14 1014.0 - 0.0 - - - - - - -
26/02:30am 25.2 E 8 13 1014.1 - 0.0 - - - - - - -
26/02:00am 25.1 E 8 14 1014.4 - 0.0 - - - - - - -
26/01:30am 25.1 E 8 11 1014.5 - 0.0 - - - - - - -
26/01:00am 25.1 E 6 9 1014.9 - 0.0 - - - - - - -
26/12:30am 25.3 E 6 10 1015.0 - 0.0 - - - - - - -
26/12:00am 25.3 ENE 6 10 1015.0 - 0.0 - - - - - - -
 
Date/Time
CST
Temp

°C
Wind Pressure Rain
since 9am
mm
Weather Cloud Vis
km
Sea
Height
m
Swell
Dir
 
Speed
knots
Gust
knots
hPa Trend Height
m
Period
s
Dir
25/11:30pm 25.4 ENE 6 9 1014.9 - 0.0 - - - - - - -
25/11:00pm 25.4 ENE 5 10 1015.1 - 0.0 - - - - - - -
25/10:30pm 25.1 ENE 5 9 1015.0 - 0.0 - - - - - - -
25/10:00pm 25.0 ENE 3 7 1015.0 - 0.0 - - - - - - -
25/09:30pm 25.0 ENE 3 5 1014.9 - 0.0 - - - - - - -
25/09:00pm 25.1 ENE 3 7 1014.7 - 0.0 - - - - - - -
25/08:30pm 25.2 ENE 4 6 1014.6 - 0.0 - - - - - - -
25/08:00pm 25.3 ENE 3 4 1014.3 - 0.0 - - - - - - -
25/07:30pm 25.4 ENE 3 5 1013.9 - 0.0 - - - - - - -
25/07:00pm 25.6 ENE 5 9 1013.8 - 0.0 - - - - - - -
25/06:30pm 25.9 ENE 6 11 1013.6 - 0.0 - - - - - - -
25/06:00pm 26.6 ENE 7 12 1013.5 - 0.0 - - - - - - -
25/05:30pm 27.0 E 9 13 1013.4 - 0.0 - - - - - - -
25/05:00pm 27.5 ENE 8 15 1013.3 - 0.0 - - - - - - -
25/04:30pm 27.9 E 8 12 1013.3 - 0.0 - - - - - - -
25/04:00pm 28.0 E 10 13 1013.4 - 0.0 - - - - - - -
25/03:30pm 28.2 E 10 14 1013.6 - 0.0 - - - - - - -
25/03:00pm 28.3 E 9 14 1013.7 - 0.0 - - - - - - -
25/02:30pm 28.1 E 9 12 1014.0 - 0.0 - - - - - - -
25/02:00pm 28.6 E 9 13 1014.4 - 0.0 - - - - - - -
25/01:30pm 28.7 E 9 14 1014.8 - 0.0 - - - - - - -
25/01:00pm 28.6 E 9 13 1015.3 - 0.0 - - - - - - -
25/12:30pm 28.3 E 9 13 1015.7 - 0.0 - - - - - - -
25/12:00pm 28.3 ESE 10 13 1016.1 - 0.0 - - - - - - -

Other Formats:

Comma delimited format used in spreadsheet applications
http://www.bom.gov.au/fwo/IDD60701/IDD60701.94139.axf

JavaScript Object Notation format (JSON) in row-major order
http://www.bom.gov.au/fwo/IDD60701/IDD60701.94139.json